Time;durP1;ratioP1;P1;durP2;ratioP2;P2;SDS_P1;SDS_P2;PMS_P1;PMS_P2;Temp;Humidity;BMP_temperature;BMP_pressure;BME280_temperature;BME280_humidity;BME280_pressure;Samples;Min_cycle;Max_cycle;Signal;HPM_P1;HPM_P2
2023/07/09 00:02:17;;;;;;;11.63;7.20;;;;;;;19.05;100.00;100548.13;5029947;28;20109;-74
2023/07/09 00:04:43;;;;;;;15.70;7.03;;;;;;;19.25;100.00;100581.31;5029600;28;20432;-76
2023/07/09 00:07:30;;;;;;;10.68;7.38;;;;;;;19.32;100.00;100577.84;5029493;28;20140;-76
2023/07/09 00:09:56;;;;;;;18.15;7.47;;;;;;;19.35;100.00;100576.97;5029814;28;20026;-74
2023/07/09 00:12:22;;;;;;;12.60;7.20;;;;;;;19.40;100.00;100589.22;5028910;28;20518;-77
2023/07/09 00:14:49;;;;;;;12.20;7.80;;;;;;;19.36;100.00;100599.69;5029613;28;20033;-73
2023/07/09 00:17:23;;;;;;;14.07;7.10;;;;;;;19.30;100.00;100592.69;5029894;28;20080;-73
2023/07/09 00:19:49;;;;;;;16.75;6.90;;;;;;;19.40;100.00;100593.56;5029323;28;20736;-74
2023/07/09 00:22:17;;;;;;;10.52;7.68;;;;;;;19.46;100.00;100590.97;5028412;28;20030;-76
2023/07/09 00:24:47;;;;;;;12.20;7.63;;;;;;;19.58;100.00;100591.88;5029586;28;20025;-76
2023/07/09 00:27:14;;;;;;;12.25;7.45;;;;;;;19.47;100.00;100577.00;5029055;28;20503;-76
2023/07/09 00:29:41;;;;;;;12.70;8.30;;;;;;;19.56;100.00;100592.75;5029306;28;20026;-76
2023/07/09 00:32:15;;;;;;;11.38;7.88;;;;;;;19.60;100.00;100595.38;5032904;28;20063;-75
2023/07/09 00:34:50;;;;;;;16.23;8.13;;;;;;;19.64;100.00;100594.50;5033361;28;20040;-74
2023/07/09 00:37:25;;;;;;;10.38;6.93;;;;;;;19.55;100.00;100591.00;5032876;28;20037;-76
2023/07/09 00:39:51;;;;;;;9.55;7.40;;;;;;;19.34;100.00;100557.81;5033460;28;20033;-78
2023/07/09 00:42:20;;;;;;;24.42;8.23;;;;;;;19.55;100.00;100595.34;5032833;28;20033;-77
2023/07/09 00:44:55;;;;;;;10.73;6.97;;;;;;;19.50;100.00;100590.13;5032712;28;20068;-77
2023/07/09 00:47:28;;;;;;;9.18;7.35;;;;;;;19.52;100.00;100585.75;5033259;28;20029;-74
2023/07/09 00:50:09;;;;;;;13.13;7.38;;;;;;;19.55;100.00;100596.25;5031378;28;20032;-76
2023/07/09 00:52:48;;;;;;;10.93;8.00;;;;;;;19.56;100.00;100595.38;5032899;28;20029;-72
2023/07/09 00:55:17;;;;;;;12.57;7.65;;;;;;;19.51;100.00;100599.69;5030207;28;20053;-73
2023/07/09 00:57:49;;;;;;;11.63;8.18;;;;;;;19.45;100.00;100602.34;5032836;28;20053;-73
2023/07/09 01:00:17;;;;;;;13.98;8.13;;;;;;;19.49;100.00;100593.63;5047386;28;20036;-72
2023/07/09 01:02:48;;;;;;;10.55;7.55;;;;;;;19.54;100.00;100606.72;5032161;28;20037;-71
2023/07/09 01:05:17;;;;;;;10.30;7.50;;;;;;;19.33;100.00;100578.75;5030122;28;20041;-73
2023/07/09 01:07:45;;;;;;;12.38;8.27;;;;;;;19.42;100.00;100598.84;5031732;28;20922;-74
2023/07/09 01:10:13;;;;;;;16.70;8.33;;;;;;;19.15;100.00;100592.63;5032385;28;20068;-73
2023/07/09 01:12:39;;;;;;;10.30;8.13;;;;;;;19.26;100.00;100601.38;5032335;28;20298;-75
2023/07/09 01:15:07;;;;;;;13.50;7.93;;;;;;;19.35;100.00;100611.00;5032577;28;20104;-74
2023/07/09 01:17:33;;;;;;;14.30;8.88;;;;;;;19.30;100.00;100607.50;5032519;28;20040;-72
2023/07/09 01:19:59;;;;;;;10.40;7.72;;;;;;;19.33;100.00;100605.78;5031193;28;20036;-75
2023/07/09 01:22:27;;;;;;;15.95;8.15;;;;;;;19.43;100.00;100603.19;5031951;28;20029;-74
2023/07/09 01:25:02;;;;;;;12.45;8.27;;;;;;;19.40;100.00;100597.09;5032542;28;20025;-74
2023/07/09 01:27:37;;;;;;;9.57;7.90;;;;;;;19.43;100.00;100609.31;5031899;28;20056;-74
2023/07/09 01:30:28;;;;;;;11.23;7.60;;;;;;;19.45;100.00;100612.81;5029707;28;20040;-77
2023/07/09 01:32:57;;;;;;;10.00;7.78;;;;;;;19.40;100.00;100602.31;5047285;28;20029;-77
2023/07/09 01:35:23;;;;;;;8.95;7.60;;;;;;;19.44;100.00;100613.69;5032138;28;20013;-77
2023/07/09 01:37:48;;;;;;;13.75;7.45;;;;;;;19.30;100.00;100591.81;5031683;28;20082;-73
2023/07/09 01:40:17;;;;;;;11.20;7.65;;;;;;;19.43;100.00;100619.78;5032073;28;20033;-75
2023/07/09 01:42:43;;;;;;;12.68;7.78;;;;;;;19.42;100.00;100618.03;5031775;28;20120;-72
2023/07/09 01:45:12;;;;;;;11.90;7.68;;;;;;;19.33;100.00;100607.53;5031538;28;20159;-74
2023/07/09 01:47:38;;;;;;;13.07;7.80;;;;;;;19.46;100.00;100630.25;5032126;28;20052;-72
2023/07/09 01:50:06;;;;;;;10.75;7.68;;;;;;;19.45;100.00;100632.88;5030581;28;20034;-74
2023/07/09 01:52:33;;;;;;;11.93;7.45;;;;;;;19.26;100.00;100640.66;5031252;28;20044;-74
2023/07/09 01:54:58;;;;;;;9.45;7.80;;;;;;;19.16;100.00;100650.19;5031778;28;20025;-72
2023/07/09 01:57:32;;;;;;;10.02;7.38;;;;;;;19.04;100.00;100648.41;5031550;28;20030;-73
2023/07/09 01:59:59;;;;;;;13.00;7.32;;;;;;;19.08;100.00;100644.09;5031710;28;20052;-75
2023/07/09 02:02:25;;;;;;;13.85;6.78;;;;;;;19.04;100.00;100639.69;5031576;28;20040;-71
2023/07/09 02:04:53;;;;;;;7.85;5.50;;;;;;;18.93;100.00;100639.66;5031690;28;20087;-74
2023/07/09 02:07:20;;;;;;;12.45;5.75;;;;;;;18.62;100.00;100589.75;5031481;28;20112;-75
2023/07/09 02:09:46;;;;;;;10.15;5.90;;;;;;;18.84;100.00;100640.44;5031647;28;20025;-73
2023/07/09 02:12:13;;;;;;;8.98;5.95;;;;;;;18.85;100.00;100636.94;5031699;28;20403;-73
2023/07/09 02:14:41;;;;;;;14.32;6.38;;;;;;;18.87;100.00;100645.66;5031125;28;20108;-71
2023/07/09 02:17:07;;;;;;;11.30;6.43;;;;;;;18.85;100.00;100646.53;5031274;28;20444;-75
2023/07/09 02:19:33;;;;;;;12.55;6.15;;;;;;;18.81;100.00;100655.25;5030846;28;20017;-71
2023/07/09 02:21:58;;;;;;;10.48;6.05;;;;;;;18.64;100.00;100637.72;5025636;28;20180;-73
2023/07/09 02:24:25;;;;;;;14.55;6.35;;;;;;;18.59;100.00;100650.75;5018515;28;20654;-72
2023/07/09 02:26:59;;;;;;;10.15;5.75;;;;;;;18.57;100.00;100656.84;5031303;28;20029;-75
2023/07/09 02:29:25;;;;;;;10.27;5.80;;;;;;;18.64;100.00;100656.00;5018893;28;20025;-74
2023/07/09 02:31:52;;;;;;;12.50;5.90;;;;;;;18.61;100.00;100669.06;5030851;28;20030;-76
2023/07/09 02:34:18;;;;;;;10.38;5.72;;;;;;;18.51;100.00;100667.25;5030655;28;20033;-76
2023/07/09 02:36:46;;;;;;;9.90;5.70;;;;;;;18.58;100.00;100664.69;5030916;28;20116;-74
2023/07/09 02:39:13;;;;;;;10.27;5.60;;;;;;;18.38;100.00;100634.88;5029762;28;20022;-74
2023/07/09 02:41:39;;;;;;;11.38;5.50;;;;;;;18.58;100.00;100672.53;5030558;28;20048;-74
2023/07/09 02:44:06;;;;;;;8.55;5.35;;;;;;;18.65;100.00;100673.44;5030715;28;20017;-76
2023/07/09 02:46:31;;;;;;;12.68;5.80;;;;;;;18.71;100.00;100686.53;5030481;28;20109;-76
2023/07/09 02:48:57;;;;;;;9.50;5.47;;;;;;;18.47;100.00;100639.31;5030785;28;20516;-77
2023/07/09 02:51:24;;;;;;;9.98;6.32;;;;;;;18.66;100.00;100671.72;5030567;28;20114;-77
2023/07/09 02:53:49;;;;;;;9.30;5.80;;;;;;;18.73;100.00;100674.38;5030089;28;20025;-79
2023/07/09 02:56:15;;;;;;;12.88;5.70;;;;;;;18.69;100.00;100682.16;5030691;28;20499;-79
2023/07/09 02:58:40;;;;;;;9.80;5.68;;;;;;;18.65;100.00;100678.66;5030598;28;20069;-79
2023/07/09 03:01:06;;;;;;;9.02;5.40;;;;;;;18.61;100.00;100665.56;5030228;28;20454;-75
2023/07/09 03:03:31;;;;;;;12.25;5.88;;;;;;;18.61;100.00;100674.28;5030454;28;20017;-77
2023/07/09 03:05:57;;;;;;;13.98;6.55;;;;;;;18.67;100.00;100673.47;5030247;28;20494;-77
2023/07/09 03:08:22;;;;;;;12.10;5.70;;;;;;;18.64;100.00;100676.03;5030140;28;20460;-75
2023/07/09 03:10:48;;;;;;;13.35;5.95;;;;;;;18.62;100.00;100690.84;5030370;28;20036;-77
2023/07/09 03:13:13;;;;;;;9.35;5.40;;;;;;;18.63;100.00;100690.88;5030281;28;20087;-76
2023/07/09 03:15:39;;;;;;;12.02;5.68;;;;;;;18.51;100.00;100677.69;5030090;28;20029;-76
2023/07/09 03:18:04;;;;;;;10.02;5.57;;;;;;;18.42;100.00;100694.19;5030270;28;20026;-76
2023/07/09 03:20:30;;;;;;;10.43;5.90;;;;;;;18.39;100.00;100683.69;5031032;28;20029;-75
2023/07/09 03:22:56;;;;;;;12.93;5.97;;;;;;;18.46;100.00;100693.34;5030439;28;20045;-79
2023/07/09 03:25:21;;;;;;;9.10;5.57;;;;;;;18.52;100.00;100706.47;5030544;28;20038;-75
2023/07/09 03:27:50;;;;;;;9.77;5.57;;;;;;;18.59;100.00;100694.31;5029145;28;20029;-77
2023/07/09 03:30:15;;;;;;;9.30;5.30;;;;;;;18.59;100.00;100696.91;5030465;28;20177;-77
2023/07/09 03:32:42;;;;;;;10.10;5.43;;;;;;;18.62;100.00;100696.06;5030222;28;20578;-77
2023/07/09 03:35:08;;;;;;;11.98;5.78;;;;;;;18.61;100.00;100689.09;5030385;28;20029;-77
2023/07/09 03:37:34;;;;;;;10.30;5.30;;;;;;;18.67;100.00;100702.22;5030357;28;20033;-77
2023/07/09 03:39:59;;;;;;;9.52;5.93;;;;;;;18.65;100.00;100696.09;5030874;28;20021;-77
2023/07/09 03:42:25;;;;;;;6.22;5.00;;;;;;;18.58;100.00;100697.81;5030557;28;20022;-76
2023/07/09 03:44:50;;;;;;;10.13;5.57;;;;;;;18.52;100.00;100711.69;5029879;28;20080;-79
2023/07/09 03:47:17;;;;;;;10.48;5.93;;;;;;;18.44;100.00;100697.66;5030027;28;20029;-77
2023/07/09 03:49:43;;;;;;;7.93;5.22;;;;;;;18.59;100.00;100710.00;5030662;28;20506;-77
2023/07/09 03:52:09;;;;;;;9.88;5.47;;;;;;;18.51;100.00;100704.69;5030317;28;20029;-74
2023/07/09 03:54:34;;;;;;;8.60;5.38;;;;;;;18.46;100.00;100703.78;5030188;28;20036;-78
2023/07/09 03:56:59;;;;;;;9.45;5.78;;;;;;;18.30;100.00;100704.53;5030278;28;20562;-78
2023/07/09 03:59:25;;;;;;;10.18;5.78;;;;;;;18.18;100.00;100708.78;5028746;28;20045;-77
2023/07/09 04:01:50;;;;;;;8.27;5.90;;;;;;;17.99;100.00;100709.47;5029936;28;20033;-82
2023/07/09 04:04:20;;;;;;;13.20;6.45;;;;;;;17.75;100.00;100663.91;5030166;28;20400;-81
2023/07/09 04:06:46;;;;;;;12.05;7.28;;;;;;;18.01;100.00;100694.69;5033654;28;20029;-76
2023/07/09 04:09:11;;;;;;;9.57;6.13;;;;;;;18.25;100.00;100709.72;5034059;28;20120;-78
2023/07/09 04:11:37;;;;;;;9.50;6.30;;;;;;;18.10;100.00;100660.81;5033754;28;20113;-77
2023/07/09 04:14:02;;;;;;;12.48;7.05;;;;;;;18.32;100.00;100706.31;5033755;28;20021;-77
2023/07/09 04:16:28;;;;;;;11.45;7.00;;;;;;;18.41;100.00;100708.13;5032692;28;20052;-74
2023/07/09 04:18:53;;;;;;;12.35;6.45;;;;;;;18.58;100.00;100716.97;5033837;28;20069;-74
2023/07/09 04:21:19;;;;;;;12.63;6.85;;;;;;;18.67;100.00;100705.69;5033866;28;20610;-76
2023/07/09 04:23:44;;;;;;;12.05;6.68;;;;;;;18.75;100.00;100703.13;5033995;28;20025;-75
2023/07/09 04:26:13;;;;;;;11.93;6.93;;;;;;;18.79;100.00;100707.53;5033610;28;20163;-76
2023/07/09 04:28:39;;;;;;;11.02;6.93;;;;;;;18.72;100.00;100692.66;5033397;28;20032;-76
2023/07/09 04:31:04;;;;;;;9.23;6.53;;;;;;;18.79;100.00;100697.09;5033833;28;20120;-79
2023/07/09 04:33:30;;;;;;;10.10;7.10;;;;;;;18.90;100.00;100703.28;5033673;28;20389;-76
2023/07/09 04:35:55;;;;;;;9.40;6.55;;;;;;;18.91;100.00;100705.00;5032164;28;20029;-78
2023/07/09 04:38:21;;;;;;;9.80;6.43;;;;;;;18.83;100.00;100672.69;5033808;28;20108;-77
2023/07/09 04:40:47;;;;;;;15.63;6.90;;;;;;;19.02;100.00;100702.47;5033346;28;20453;-75
2023/07/09 04:43:12;;;;;;;8.52;6.57;;;;;;;19.07;100.00;100699.91;5033204;28;20061;-75
2023/07/09 04:45:38;;;;;;;8.57;7.45;;;;;;;19.14;100.00;100703.41;5033453;28;20025;-75
2023/07/09 04:48:04;;;;;;;12.73;8.00;;;;;;;19.23;100.00;100699.09;5033312;28;20056;-75
2023/07/09 04:50:29;;;;;;;12.23;7.60;;;;;;;19.16;100.00;100673.75;5032236;28;20018;-76
2023/07/09 04:52:55;;;;;;;13.45;8.63;;;;;;;19.18;100.00;100676.41;5032965;28;20407;-74
2023/07/09 04:55:20;;;;;;;11.32;8.02;;;;;;;19.21;100.00;100707.81;5033386;28;20538;-73
2023/07/09 04:57:46;;;;;;;12.70;7.78;;;;;;;19.04;100.00;100678.94;5014044;28;20085;-77
2023/07/09 05:00:12;;;;;;;11.57;8.15;;;;;;;19.18;100.00;100711.28;5032783;28;20116;-75
2023/07/09 05:02:38;;;;;;;11.02;8.60;;;;;;;19.20;100.00;100701.72;5040412;28;20025;-77
2023/07/09 05:05:04;;;;;;;13.93;8.60;;;;;;;19.19;100.00;100699.06;5052904;28;20399;-76
2023/07/09 05:07:31;;;;;;;11.00;8.13;;;;;;;19.04;100.00;100671.06;5053093;28;20116;-74
2023/07/09 05:09:57;;;;;;;13.40;8.50;;;;;;;19.20;100.00;100686.00;5052777;28;20487;-75
2023/07/09 05:12:26;;;;;;;14.00;8.73;;;;;;;19.40;100.00;100703.53;5052464;28;20056;-77
2023/07/09 05:14:52;;;;;;;11.10;8.88;;;;;;;19.26;100.00;100668.59;5053087;28;20735;-75
2023/07/09 05:17:17;;;;;;;13.13;8.93;;;;;;;19.56;100.00;100704.47;5052001;28;20037;-75
2023/07/09 05:19:43;;;;;;;13.18;9.57;;;;;;;19.64;100.00;100710.63;5052876;28;20410;-77
2023/07/09 05:22:08;;;;;;;14.25;10.02;;;;;;;19.66;100.00;100711.47;5051525;28;20029;-74
2023/07/09 05:24:34;;;;;;;12.20;9.38;;;;;;;19.72;100.00;100710.66;5052533;28;20032;-74
2023/07/09 05:26:59;;;;;;;19.48;10.02;;;;;;;19.79;100.00;100711.53;5052194;28;20025;-76
2023/07/09 05:29:25;;;;;;;13.52;9.27;;;;;;;19.84;100.00;100705.47;5052216;28;20079;-75
2023/07/09 05:31:51;;;;;;;19.33;9.93;;;;;;;19.82;100.00;100711.53;5052370;28;20494;-78
2023/07/09 05:34:17;;;;;;;16.83;10.52;;;;;;;19.93;100.00;100711.63;5052243;28;20037;-75
2023/07/09 05:36:42;;;;;;;12.88;9.80;;;;;;;19.98;100.00;100715.97;5052177;28;20106;-76
2023/07/09 05:39:08;;;;;;;12.82;10.07;;;;;;;20.10;100.00;100717.75;5052447;28;20047;-78
2023/07/09 05:41:33;;;;;;;12.88;9.63;;;;;;;20.15;100.00;100728.22;5051975;28;20083;-75
2023/07/09 05:43:59;;;;;;;15.77;9.63;;;;;;;20.05;100.00;100716.88;5052390;28;20532;-77
2023/07/09 05:46:24;;;;;;;12.95;9.32;;;;;;;20.17;100.00;100721.25;5052315;28;20017;-79
2023/07/09 05:48:50;;;;;;;16.40;9.70;;;;;;;20.17;100.00;100719.50;5052229;28;20033;-77
2023/07/09 05:51:15;;;;;;;12.25;9.80;;;;;;;20.24;100.00;100709.03;5052137;28;20028;-75
2023/07/09 05:53:41;;;;;;;15.68;9.68;;;;;;;20.38;100.00;100714.28;5051978;28;20025;-75
2023/07/09 05:56:07;;;;;;;16.85;9.25;;;;;;;20.42;100.00;100711.66;5032877;28;20052;-78
2023/07/09 05:58:33;;;;;;;13.25;9.43;;;;;;;20.57;100.00;100709.91;5051522;28;20048;-79
2023/07/09 06:00:58;;;;;;;15.48;8.23;;;;;;;20.68;100.00;100710.78;5052019;28;20373;-81
2023/07/09 06:03:26;;;;;;;12.32;8.85;;;;;;;20.68;100.00;100701.16;5050477;28;20526;-79
2023/07/09 06:05:52;;;;;;;10.93;8.13;;;;;;;20.75;100.00;100704.69;5051854;28;20084;-79
2023/07/09 06:08:19;;;;;;;14.15;8.57;;;;;;;20.87;100.00;100702.91;5051689;28;20557;-78
2023/07/09 06:10:58;;;;;;;11.63;8.43;;;;;;;20.94;100.00;100717.78;5051666;28;20021;-77
2023/07/09 06:13:25;;;;;;;15.38;7.63;;;;;;;20.89;100.00;100702.03;5051725;28;20075;-80
2023/07/09 06:15:52;;;;;;;10.27;7.43;;;;;;;21.09;100.00;100711.63;5051855;28;20025;-78
2023/07/09 06:18:19;;;;;;;11.32;7.38;;;;;;;21.12;100.00;100715.13;5051664;28;20021;-79
2023/07/09 06:20:50;;;;;;;8.82;7.53;;;;;;;21.21;100.00;100718.56;5051657;28;20096;-76
2023/07/09 06:23:16;;;;;;;14.05;8.20;;;;;;;21.07;100.00;100671.38;5051445;28;20029;-78
2023/07/09 06:25:43;;;;;;;13.88;7.93;;;;;;;21.36;100.00;100704.53;5051485;28;20403;-78
2023/07/09 06:28:08;;;;;;;12.32;7.15;;;;;;;21.37;100.00;100696.66;5050624;28;20029;-82
2023/07/09 06:30:34;;;;;;;10.23;7.35;;;;;;;21.54;100.00;100704.44;5051255;28;20033;-81
2023/07/09 06:32:59;;;;;;;8.88;6.35;;;;;;;21.66;100.00;100695.69;5051416;28;20040;-80
2023/07/09 06:35:25;;;;;;;15.00;7.10;;;;;;;21.73;100.00;100702.66;5050010;28;20028;-80
2023/07/09 06:37:50;;;;;;;10.60;6.30;;;;;;;21.65;100.00;100670.28;5049723;28;20413;-80
2023/07/09 06:40:15;;;;;;;13.00;6.38;;;;;;;21.80;97.99;100691.19;5051063;28;20483;-76
2023/07/09 06:42:41;;;;;;;9.60;6.20;;;;;;;22.00;97.83;100705.13;5050921;28;20029;-81
2023/07/09 06:45:07;;;;;;;9.43;5.75;;;;;;;22.11;97.60;100703.28;5051395;28;20025;-78
2023/07/09 06:47:32;;;;;;;9.68;5.50;;;;;;;22.23;94.77;100697.06;5051244;28;20056;-76
2023/07/09 06:50:00;;;;;;;10.23;5.90;;;;;;;22.27;93.20;100681.25;5051207;28;20365;-80
2023/07/09 06:52:26;;;;;;;12.50;6.25;;;;;;;22.43;93.82;100703.06;5049354;28;20098;-81
2023/07/09 06:54:51;;;;;;;10.43;5.55;;;;;;;22.48;96.43;100689.88;5050691;28;20487;-77
2023/07/09 06:57:17;;;;;;;8.43;5.30;;;;;;;22.65;95.04;100694.97;5050843;28;20024;-80
2023/07/09 06:59:42;;;;;;;8.30;5.07;;;;;;;22.69;86.58;100694.06;5050992;28;20096;-78
2023/07/09 07:02:08;;;;;;;9.13;5.20;;;;;;;22.80;88.00;100693.09;5050583;28;20036;-82
2023/07/09 07:04:33;;;;;;;8.88;5.20;;;;;;;22.87;90.22;100697.41;5050641;28;20083;-80
2023/07/09 07:06:59;;;;;;;6.63;4.63;;;;;;;22.82;82.17;100688.66;5050908;28;20024;-81
2023/07/09 07:09:25;;;;;;;7.05;4.05;;;;;;;22.96;81.87;100709.59;5050800;28;20104;-80
2023/07/09 07:11:50;;;;;;;5.78;3.92;;;;;;;22.80;81.45;100665.00;5050711;28;20075;-77
2023/07/09 07:14:16;;;;;;;5.50;3.80;;;;;;;23.05;79.52;100676.16;5050647;28;20429;-78
2023/07/09 07:16:41;;;;;;;6.63;4.10;;;;;;;23.23;79.03;100690.03;5050346;28;20124;-81
2023/07/09 07:19:07;;;;;;;7.13;4.90;;;;;;;23.24;78.62;100683.84;5050448;28;20083;-79
2023/07/09 07:21:33;;;;;;;7.03;4.22;;;;;;;23.35;81.95;100688.97;5060875;28;20057;-78
2023/07/09 07:23:58;;;;;;;6.78;3.80;;;;;;;23.33;75.05;100667.03;5050540;28;20028;-82
2023/07/09 07:26:24;;;;;;;8.10;3.92;;;;;;;23.42;78.23;100680.97;5050634;28;20029;-81
2023/07/09 07:28:50;;;;;;;6.95;3.42;;;;;;;23.53;72.75;100686.13;5050387;28;20032;-76
2023/07/09 07:31:17;;;;;;;6.57;3.55;;;;;;;23.70;78.44;100688.53;5050260;28;20040;-74
2023/07/09 07:33:42;;;;;;;5.05;2.90;;;;;;;23.75;67.02;100693.72;5049293;28;20372;-72
2023/07/09 07:36:08;;;;;;;5.30;3.30;;;;;;;23.73;71.27;100677.94;5050341;28;20031;-75
2023/07/09 07:38:35;;;;;;;4.45;3.38;;;;;;;23.82;68.47;100683.97;5050304;28;20029;-72
2023/07/09 07:41:01;;;;;;;5.00;3.42;;;;;;;23.87;70.25;100679.50;5050274;28;20454;-73
2023/07/09 07:43:27;;;;;;;7.35;3.40;;;;;;;23.93;67.68;100682.06;5050133;28;20032;-75
2023/07/09 07:45:52;;;;;;;8.55;3.33;;;;;;;24.04;70.46;100681.94;5050018;28;20029;-72
2023/07/09 07:48:18;;;;;;;5.10;3.28;;;;;;;24.05;73.61;100681.91;5050078;28;20060;-74
2023/07/09 07:50:47;;;;;;;5.40;3.75;;;;;;;23.98;71.45;100658.28;5050126;28;20029;-73
2023/07/09 07:53:15;;;;;;;5.18;3.67;;;;;;;24.16;73.21;100691.41;5049832;28;20043;-74
2023/07/09 07:55:41;;;;;;;9.38;3.88;;;;;;;24.16;70.92;100678.22;5031475;28;20060;-75
2023/07/09 07:58:11;;;;;;;8.68;3.70;;;;;;;24.25;73.41;100678.06;5047519;28;20042;-76
2023/07/09 08:00:36;;;;;;;7.70;3.65;;;;;;;24.24;70.19;100671.06;5050230;28;20033;-75
2023/07/09 08:03:02;;;;;;;12.35;3.50;;;;;;;24.29;70.60;100647.22;5047704;28;20037;-74
2023/07/09 08:05:28;;;;;;;5.90;3.00;;;;;;;24.43;65.95;100665.47;5049739;28;20021;-75
2023/07/09 08:07:54;;;;;;;5.78;3.50;;;;;;;24.57;67.62;100673.13;5049798;28;20059;-73
2023/07/09 08:10:19;;;;;;;8.35;3.60;;;;;;;24.57;66.24;100667.84;5050322;28;20032;-73
2023/07/09 08:12:45;;;;;;;6.80;3.17;;;;;;;24.68;65.86;100679.97;5049625;28;20037;-72
2023/07/09 08:15:10;;;;;;;6.35;2.95;;;;;;;24.80;65.57;100676.25;5049918;28;20037;-73
2023/07/09 08:17:36;;;;;;;4.72;2.88;;;;;;;24.83;68.23;100664.75;5051023;28;20044;-78
2023/07/09 08:20:02;;;;;;;7.38;3.08;;;;;;;24.85;67.78;100669.09;5049574;28;20508;-72
2023/07/09 08:22:27;;;;;;;6.95;3.35;;;;;;;24.87;65.92;100669.06;5048823;28;20017;-74
2023/07/09 08:24:52;;;;;;;5.95;3.15;;;;;;;24.87;65.95;100662.03;5049796;28;20494;-73
2023/07/09 08:27:19;;;;;;;6.93;3.00;;;;;;;25.01;63.58;100666.16;5049893;28;20702;-73
2023/07/09 08:29:44;;;;;;;6.13;2.90;;;;;;;25.07;62.84;100668.69;5049772;28;20031;-75
2023/07/09 08:32:13;;;;;;;4.78;3.30;;;;;;;25.07;64.29;100651.97;5046016;28;20095;-77
2023/07/09 08:34:40;;;;;;;5.88;2.65;;;;;;;25.07;60.51;100641.41;5010324;28;20149;-76
2023/07/09 08:37:09;;;;;;;5.10;2.88;;;;;;;25.14;61.53;100645.66;5016826;28;20445;-75
2023/07/09 08:39:34;;;;;;;5.57;2.67;;;;;;;25.25;66.82;100656.88;5024150;28;20147;-76
2023/07/09 08:42:09;;;;;;;5.18;3.00;;;;;;;25.40;64.23;100641.63;5029173;28;20463;-76
2023/07/09 08:44:46;;;;;;;6.05;2.80;;;;;;;25.51;59.51;100653.69;5016662;28;20050;-77
2023/07/09 08:47:22;;;;;;;6.53;2.75;;;;;;;25.56;59.15;100653.59;5028759;28;20053;-76
2023/07/09 08:49:52;;;;;;;6.00;2.92;;;;;;;25.51;58.81;100644.91;5029461;28;20116;-77
2023/07/09 08:52:29;;;;;;;;;;;;;;;25.62;60.22;100647.28;5032147;28;20170;-79
2023/07/09 08:54:57;;;;;;;4.03;2.58;;;;;;;25.62;62.05;100652.56;5055920;28;19920;-74
2023/07/09 08:57:26;;;;;;;8.43;3.00;;;;;;;25.74;60.94;100648.78;5031219;28;20053;-74
2023/07/09 09:00:00;;;;;;;4.03;2.70;;;;;;;25.88;60.52;100651.09;5032951;28;20099;-77
2023/07/09 09:02:36;;;;;;;6.28;3.20;;;;;;;25.95;59.36;100648.28;5032489;28;20422;-73
2023/07/09 09:05:05;;;;;;;3.85;2.53;;;;;;;26.08;64.04;100646.25;5032728;28;20080;-74
2023/07/09 09:07:42;;;;;;;4.13;2.75;;;;;;;26.13;60.18;100647.00;5032719;28;20079;-78
2023/07/09 09:10:31;;;;;;;4.03;2.60;;;;;;;26.21;60.67;100653.88;5031529;28;20037;-73
2023/07/09 09:13:09;;;;;;;5.80;2.90;;;;;;;26.39;59.85;100652.53;5032216;28;20053;-71
2023/07/09 09:15:39;;;;;;;8.07;3.60;;;;;;;26.39;58.38;100636.66;5031093;28;20084;-74
2023/07/09 09:18:25;;;;;;;;;;;;;;;26.58;57.48;100651.13;5031165;28;20021;-74
2023/07/09 09:21:26;;;;;;;4.95;2.63;;;;;;;26.61;55.59;100634.31;5031766;28;20367;-74
2023/07/09 09:23:56;;;;;;;4.57;2.72;;;;;;;26.40;55.81;100604.84;5021022;28;20128;-73
2023/07/09 09:26:28;;;;;;;4.40;2.80;;;;;;;26.74;58.33;100641.03;5029584;28;20116;-73
2023/07/09 09:28:53;;;;;;;4.00;2.42;;;;;;;26.62;55.01;100591.88;5029608;28;20033;-74
2023/07/09 09:31:19;;;;;;;4.20;2.70;;;;;;;26.83;56.29;100626.66;5029524;28;20021;-73
2023/07/09 09:33:48;;;;;;;3.50;2.65;;;;;;;26.99;58.05;100640.31;5029360;28;20119;-77
2023/07/09 09:36:20;;;;;;;4.78;2.95;;;;;;;26.99;54.67;100627.06;5029581;28;20026;-73
2023/07/09 09:38:46;;;;;;;5.18;2.90;;;;;;;27.15;55.29;100634.59;5029110;28;20030;-73
2023/07/09 09:41:16;;;;;;;5.85;2.90;;;;;;;27.23;54.61;100625.50;5028928;28;20033;-75
2023/07/09 09:43:44;;;;;;;4.63;3.00;;;;;;;27.33;53.57;100620.78;5029104;28;20036;-72
2023/07/09 09:46:20;;;;;;;5.68;2.35;;;;;;;27.21;52.61;100616.72;5026900;28;20040;-73
2023/07/09 09:48:48;;;;;;;6.32;3.00;;;;;;;27.43;52.91;100616.97;5029846;28;20040;-74
2023/07/09 09:51:14;;;;;;;3.45;2.53;;;;;;;27.64;51.17;100619.88;5013306;28;20074;-72
2023/07/09 09:53:45;;;;;;;4.75;2.38;;;;;;;27.68;53.17;100607.38;5029640;28;20041;-74
2023/07/09 09:56:18;;;;;;;4.15;2.50;;;;;;;27.90;51.23;100620.78;5032727;28;20033;-74
2023/07/09 09:58:44;;;;;;;4.10;2.63;;;;;;;27.64;52.14;100590.69;5015552;28;20068;-75
2023/07/09 10:01:19;;;;;;;6.53;2.83;;;;;;;27.86;54.61;100604.09;5031974;28;20049;-73
2023/07/09 10:03:48;;;;;;;6.43;3.03;;;;;;;28.10;54.13;100598.91;5032934;28;20040;-71
2023/07/09 10:06:42;;;;;;;5.68;2.55;;;;;;;28.14;49.65;100607.66;5029921;28;20030;-73
2023/07/09 10:09:26;;;;;;;4.45;2.72;;;;;;;28.07;49.28;100601.69;5028101;28;20041;-74
2023/07/09 10:12:11;;;;;;;4.38;2.83;;;;;;;27.80;49.33;100572.47;5031351;28;20026;-75
2023/07/09 10:15:01;;;;;;;5.03;2.70;;;;;;;28.27;52.18;100598.34;5031126;28;20069;-73
2023/07/09 10:17:55;;;;;;;5.22;2.70;;;;;;;28.48;50.75;100595.88;5031162;28;20103;-75
2023/07/09 10:20:35;;;;;;;9.75;2.85;;;;;;;28.53;44.50;100556.72;5032074;28;20462;-73
2023/07/09 10:23:19;;;;;;;3.58;2.40;;;;;;;28.79;44.42;100598.31;5031443;28;20791;-74
2023/07/09 10:25:44;;;;;;;5.68;2.25;;;;;;;28.94;44.57;100602.19;5031675;28;20036;-72
2023/07/09 10:28:34;;;;;;;3.00;2.35;;;;;;;28.99;49.26;100592.22;5030764;28;20026;-72
2023/07/09 10:31:15;;;;;;;5.47;2.47;;;;;;;29.17;45.29;100596.00;5018784;28;20404;-74
2023/07/09 10:34:07;;;;;;;4.82;2.55;;;;;;;29.42;45.05;100599.50;5030582;28;20014;-73
2023/07/09 10:36:44;;;;;;;10.93;2.72;;;;;;;29.44;43.78;100590.53;5030740;28;20112;-74
2023/07/09 10:39:09;;;;;;;3.47;2.13;;;;;;;29.50;46.63;100595.59;5030461;28;20037;-74
2023/07/09 10:41:38;;;;;;;6.13;2.55;;;;;;;29.52;44.98;100585.78;5017687;28;20586;-75
2023/07/09 10:44:10;;;;;;;6.68;2.63;;;;;;;29.63;45.23;100589.78;5031124;28;20029;-78
2023/07/09 10:46:40;;;;;;;6.03;2.50;;;;;;;29.51;44.16;100578.72;5030413;28;20026;-76
2023/07/09 10:49:12;;;;;;;3.72;2.55;;;;;;;29.60;42.62;100584.59;5023430;28;20076;-76
2023/07/09 10:51:46;;;;;;;4.35;2.40;;;;;;;29.87;46.44;100587.91;5025771;28;20040;-74
2023/07/09 10:54:32;;;;;;;5.65;2.75;;;;;;;30.16;45.39;100596.50;5025520;28;20041;-73
2023/07/09 10:57:05;;;;;;;3.55;2.20;;;;;;;30.15;43.91;100584.97;5019549;28;20025;-72
2023/07/09 10:59:34;;;;;;;4.18;2.75;;;;;;;29.98;46.96;100555.53;5027792;28;20095;-68
2023/07/09 11:02:20;;;;;;;6.93;2.75;;;;;;;30.25;44.61;100584.56;5025518;28;20522;-73
2023/07/09 11:04:54;;;;;;;6.07;2.42;;;;;;;30.33;43.77;100585.09;5017247;28;20036;-73
2023/07/09 11:07:30;;;;;;;5.63;2.45;;;;;;;30.25;42.99;100542.81;5025813;28;20029;-71
2023/07/09 11:09:58;;;;;;;9.02;2.67;;;;;;;30.23;43.38;100587.28;5022532;28;20076;-74
2023/07/09 11:12:35;;;;;;;4.60;2.25;;;;;;;30.45;45.47;100575.69;5043328;28;20127;-69
2023/07/09 11:15:09;;;;;;;5.20;2.42;;;;;;;30.67;45.59;100578.31;5027566;28;20030;-76
2023/07/09 11:17:39;;;;;;;3.53;2.38;;;;;;;30.87;44.05;100580.06;5018035;28;20443;-72
2023/07/09 11:20:19;;;;;;;7.90;3.00;;;;;;;30.99;46.05;100581.25;5032058;28;20090;-74
2023/07/09 11:22:54;;;;;;;5.18;2.60;;;;;;;31.00;41.62;100571.47;5050062;28;20028;-74
2023/07/09 11:25:42;;;;;;;7.20;2.75;;;;;;;30.94;45.11;100565.50;5044913;28;20123;-74